Station Historical Data
Daily Summary for October 1, 2017 Units:  Metric    English   Both
« Previous Day
Next Day »
Daily Weekly Monthly Yearly Custom
  High: Low: Average:
Temperature: 18.6 °C 2.5 °C 10.2 °C
Dew Point: 8.2 °C 1.2 °C 4.5 °C
Humidity: 91% 39% 71%
Wind Speed: 9.7km/h 0km/h 1.3km/h
Wind Gust: 14.5km/h - -
Wind- - ESE
Pressure: 1031.4 hPa 1026 hPa -
Precipitation: 0 mm    
Historical Graphs
 
 
Tabular Data for October 1, 2017
Time Temperature Dew Point Pressure Wind Wind Speed Wind Gust Humidity Rainfall Rate (Hourly)
00:04 5.7 °C 3.6 °C 1030 hPa Calm     86% 0 mm
00:09 5.7 °C 3.6 °C 1030 hPa Calm     86% 0 mm
00:14 5.7 °C 3.5 °C 1030 hPa Calm     86% 0 mm
00:19 5.6 °C 3.4 °C 1030 hPa Calm     86% 0 mm
00:24 5.4 °C 3.4 °C 1030 hPa Calm     87% 0 mm
00:29 5.4 °C 3.4 °C 1030 hPa Calm     87% 0 mm
00:34 5.3 °C 3.3 °C 1030 hPa Calm     87% 0 mm
00:39 5.2 °C 3.2 °C 1030 hPa Calm     87% 0 mm
00:44 5.1 °C 3.1 °C 1030 hPa Calm     87% 0 mm
00:49 5.1 °C 3.2 °C 1030 hPa Calm     88% 0 mm
00:54 5 °C 3.2 °C 1029.7 hPa Calm     88% 0 mm
00:59 4.9 °C 3.1 °C 1029.7 hPa Calm     88% 0 mm
01:05 4.8 °C 2.9 °C 1030 hPa Calm     88% 0 mm
01:10 4.6 °C 2.8 °C 1030 hPa Calm     88% 0 mm
01:15 4.7 °C 3 °C 1030 hPa Calm     89% 0 mm
01:20 4.7 °C 3.1 °C 1030 hPa Calm     89% 0 mm
01:25 4.7 °C 3 °C 1030 hPa Calm     89% 0 mm
01:30 4.7 °C 3 °C 1030 hPa Calm     89% 0 mm
01:35 4.6 °C 2.9 °C 1030 hPa Calm     89% 0 mm
01:40 4.5 °C 2.8 °C 1030 hPa Calm     89% 0 mm
01:45 4.5 °C 2.8 °C 1030 hPa Calm     89% 0 mm
01:50 4.4 °C 2.8 °C 1030 hPa Calm     89% 0 mm
01:55 4.3 °C 2.7 °C 1030 hPa Calm     89% 0 mm
02:00 4.3 °C 2.7 °C 1030 hPa Calm     89% 0 mm
02:05 4.3 °C 2.7 °C 1030 hPa Calm     89% 0 mm
02:10 4.3 °C 2.6 °C 1030 hPa Calm     89% 0 mm
02:15 4.1 °C 2.4 °C 1030 hPa Calm     89% 0 mm
02:20 4 °C 2.3 °C 1030 hPa Calm     89% 0 mm
02:25 3.9 °C 2.2 °C 1030.4 hPa Calm     89% 0 mm
02:30 4 °C 2.5 °C 1030 hPa Calm     90% 0 mm
02:35 4.1 °C 2.6 °C 1030 hPa Calm     90% 0 mm
02:40 4.1 °C 2.6 °C 1030 hPa Calm     90% 0 mm
02:45 4.1 °C 2.6 °C 1030 hPa Calm     90% 0 mm
02:50 4.1 °C 2.4 °C 1030 hPa Calm     89% 0 mm
02:55 4 °C 2.5 °C 1030 hPa Calm     90% 0 mm
03:00 3.9 °C 2.4 °C 1030 hPa Calm     90% 0 mm
03:05 3.8 °C 2.3 °C 1030 hPa Calm     90% 0 mm
03:10 3.8 °C 2.3 °C 1030 hPa Calm     90% 0 mm
03:15 3.8 °C 2.3 °C 1030 hPa Calm     90% 0 mm
03:20 3.7 °C 2.2 °C 1029.7 hPa Calm     90% 0 mm
03:25 3.8 °C 2.3 °C 1030 hPa Calm     90% 0 mm
03:30 3.7 °C 2.2 °C 1030 hPa Calm     90% 0 mm
03:35 3.7 °C 2.2 °C 1030 hPa Calm     90% 0 mm
03:40 3.7 °C 2.2 °C 1029.7 hPa Calm     90% 0 mm
03:45 3.7 °C 2.2 °C 1029.7 hPa Calm     90% 0 mm
03:50 3.7 °C 2.2 °C 1030 hPa Calm     90% 0 mm
03:55 3.7 °C 2.2 °C 1029.7 hPa Calm     90% 0 mm
04:00 3.6 °C 2.1 °C 1029.7 hPa Calm     90% 0 mm
04:05 3.5 °C 2 °C 1029.7 hPa Calm     90% 0 mm
04:10 3.4 °C 1.9 °C 1029.7 hPa Calm     90% 0 mm
04:15 3.4 °C 1.9 °C 1029.7 hPa Calm     90% 0 mm
04:20 3.4 °C 1.9 °C 1029.7 hPa Calm     90% 0 mm
04:25 3.4 °C 1.9 °C 1029.7 hPa Calm     90% 0 mm
04:30 3.4 °C 1.9 °C 1029.7 hPa Calm     90% 0 mm
04:35 3.3 °C 1.8 °C 1029.7 hPa Calm     90% 0 mm
04:40 3.3 °C 1.8 °C 1029.7 hPa Calm     90% 0 mm
04:45 3.3 °C 1.8 °C 1029.7 hPa Calm     90% 0 mm
04:50 3.3 °C 1.8 °C 1029.7 hPa Calm     90% 0 mm
04:55 3.3 °C 1.8 °C 1029.7 hPa Calm     90% 0 mm
05:00 3.3 °C 1.8 °C 1030 hPa Calm     90% 0 mm
05:05 3.2 °C 1.7 °C 1030 hPa Calm     90% 0 mm
05:10 3.1 °C 1.6 °C 1030 hPa Calm     90% 0 mm
05:15 3 °C 1.5 °C 1030 hPa Calm     90% 0 mm
05:20 3.1 °C 1.6 °C 1030 hPa Calm     90% 0 mm
05:25 2.9 °C 1.4 °C 1030 hPa Calm     90% 0 mm
05:30 2.9 °C 1.4 °C 1030 hPa Calm     90% 0 mm
05:35 2.8 °C 1.3 °C 1030 hPa Calm     90% 0 mm
05:40 2.8 °C 1.3 °C 1030 hPa Calm     90% 0 mm
05:44 2.7 °C 1.2 °C 1030 hPa Calm     90% 0 mm
05:50 2.7 °C 1.2 °C 1030 hPa Calm     90% 0 mm
05:55 2.6 °C 1.2 °C 1030.4 hPa Calm     91% 0 mm
05:59 2.6 °C 1.3 °C 1030 hPa Calm     91% 0 mm
06:05 2.6 °C 1.3 °C 1030 hPa Calm     91% 0 mm
06:10 2.6 °C 1.2 °C 1030 hPa Calm     91% 0 mm
06:15 2.6 °C 1.3 °C 1030 hPa Calm     91% 0 mm
06:20 2.7 °C 1.4 °C 1030 hPa Calm     91% 0 mm
06:25 2.7 °C 1.4 °C 1030.4 hPa Calm     91% 0 mm
06:30 2.6 °C 1.3 °C 1030 hPa Calm     91% 0 mm
06:35 2.6 °C 1.2 °C 1030 hPa Calm     91% 0 mm
06:40 2.6 °C 1.3 °C 1030.4 hPa Calm     91% 0 mm
06:45 2.6 °C 1.2 °C 1030 hPa Calm     91% 0 mm
06:50 2.6 °C 1.2 °C 1030.4 hPa Calm     91% 0 mm
06:55 2.5 °C 1.2 °C 1030.4 hPa Calm     91% 0 mm
07:00 2.6 °C 1.2 °C 1030.4 hPa Calm     91% 0 mm
07:05 2.6 °C 1.3 °C 1030.4 hPa Calm     91% 0 mm
07:10 2.7 °C 1.3 °C 1030.4 hPa Calm     91% 0 mm
07:15 2.7 °C 1.4 °C 1030.4 hPa Calm     91% 0 mm
07:20 2.7 °C 1.4 °C 1030.4 hPa Calm     91% 0 mm
07:25 2.7 °C 1.3 °C 1030.7 hPa Calm     91% 0 mm
07:30 2.6 °C 1.3 °C 1030.7 hPa Calm     91% 0 mm
07:35 2.6 °C 1.3 °C 1030.7 hPa Calm     91% 0 mm
07:40 2.7 °C 1.4 °C 1030.7 hPa Calm     91% 0 mm
07:45 2.9 °C 1.6 °C 1030.7 hPa Calm     91% 0 mm
07:50 3 °C 1.7 °C 1030.7 hPa Calm     91% 0 mm
07:55 3.2 °C 1.8 °C 1030.7 hPa Calm     91% 0 mm
08:00 3.3 °C 2 °C 1030.7 hPa Calm     91% 0 mm
08:04 3.5 °C 2.2 °C 1030.7 hPa Calm     91% 0 mm
08:09 3.7 °C 2.3 °C 1030.7 hPa Calm     91% 0 mm
08:15 3.9 °C 2.6 °C 1030.7 hPa Calm     91% 0 mm
08:20 4.2 °C 2.8 °C 1030.7 hPa Calm     91% 0 mm
08:25 4.4 °C 3.1 °C 1030.7 hPa Calm     91% 0 mm
08:30 4.7 °C 3.2 °C 1030.7 hPa Calm     90% 0 mm
08:35 5 °C 3.5 °C 1031 hPa Calm     90% 0 mm
08:40 5.5 °C 3.8 °C 1031 hPa Calm     89% 0 mm
08:44 5.9 °C 4.1 °C 1031 hPa Calm     88% 0 mm
08:50 6.3 °C 4.1 °C 1031 hPa Calm     86% 0 mm
08:55 6.7 °C 4.4 °C 1031 hPa Calm     85% 0 mm
09:00 7.2 °C 4.5 °C 1031 hPa Calm     83% 0 mm
09:05 7.6 °C 4.7 °C 1031 hPa Calm     82% 0 mm
09:09 7.8 °C 4.7 °C 1031 hPa Calm     81% 0 mm
09:14 8.2 °C 5.1 °C 1031 hPa Calm     81% 0 mm
09:19 8.6 °C 5.1 °C 1031 hPa Calm     79% 0 mm
09:24 9.1 °C 5.4 °C 1031.4 hPa Calm     78% 0 mm
09:29 9.2 °C 5.2 °C 1031 hPa SSW 3.2 km/h 8 km/h 76% 0 mm
09:34 9.4 °C 5.4 °C 1031 hPa SSW 3.2 km/h 4.8 km/h 76% 0 mm
09:40 9.6 °C 5.4 °C 1031 hPa SSW 1.6 km/h 4.8 km/h 75% 0 mm
09:44 10.2 °C 5.7 °C 1031 hPa Calm   4.8 km/h 74% 0 mm
09:49 10.2 °C 5.6 °C 1031 hPa Calm   3.2 km/h 73% 0 mm
09:55 10.6 °C 5.9 °C 1031 hPa Calm   4.8 km/h 73% 0 mm
10:05 11.1 °C 5.8 °C 1031 hPa Calm   4.8 km/h 70% 0 mm
10:09 11.4 °C 5.9 °C 1031 hPa SSW 1.6 km/h 6.4 km/h 69% 0 mm
10:14 11.7 °C 5.7 °C 1031 hPa South 3.2 km/h 6.4 km/h 67% 0 mm
10:19 11.6 °C 5.6 °C 1031 hPa Calm   4.8 km/h 67% 0 mm
10:24 12.1 °C 6.6 °C 1031 hPa Calm   4.8 km/h 69% 0 mm
10:29 12.3 °C 6.1 °C 1031 hPa SSW 1.6 km/h 3.2 km/h 66% 0 mm
10:39 12.6 °C 6.4 °C 1031 hPa SSW 1.6 km/h 6.4 km/h 66% 0 mm
10:44 13.1 °C 5.8 °C 1031 hPa WSW 1.6 km/h 4.8 km/h 61% 0 mm
10:50 13.3 °C 5.2 °C 1030.7 hPa WSW 1.6 km/h 4.8 km/h 58% 0 mm
10:54 13.6 °C 6.2 °C 1030.7 hPa Calm   3.2 km/h 61% 0 mm
11:00 13.6 °C 5.4 °C 1030.7 hPa WNW 1.6 km/h 4.8 km/h 58% 0 mm
11:05 13.9 °C 5.8 °C 1030.7 hPa SSE 1.6 km/h 4.8 km/h 58% 0 mm
11:09 13.9 °C 5.5 °C 1030.7 hPa SSE 3.2 km/h 8 km/h 57% 0 mm
11:15 14.2 °C 6 °C 1030.4 hPa SSE 3.2 km/h 8 km/h 58% 0 mm
11:19 14.2 °C 6 °C 1030.4 hPa SSE 1.6 km/h 6.4 km/h 58% 0 mm
11:24 14.4 °C 6 °C 1030.4 hPa SE 4.8 km/h 6.4 km/h 57% 0 mm
11:29 14.3 °C 5.6 °C 1030.4 hPa SE 4.8 km/h 6.4 km/h 56% 0 mm
11:34 14.7 °C 6.3 °C 1030 hPa Calm   8 km/h 57% 0 mm
11:40 14.7 °C 5.2 °C 1030 hPa Calm   8 km/h 53% 0 mm
11:44 14.7 °C 5.8 °C 1030 hPa ENE 3.2 km/h 11.3 km/h 55% 0 mm
11:50 15 °C 6.3 °C 1030 hPa ENE 4.8 km/h 11.3 km/h 56% 0 mm
11:55 15.1 °C 6.3 °C 1030 hPa ENE 3.2 km/h 8 km/h 56% 0 mm
11:59 14.8 °C 5.6 °C 1030 hPa ENE 3.2 km/h 3.2 km/h 54% 0 mm
12:05 15 °C 5.5 °C 1030 hPa West 1.6 km/h 6.4 km/h 53% 0 mm
12:10 14.9 °C 5.7 °C 1030 hPa Calm   8 km/h 54% 0 mm
12:14 15.3 °C 6.8 °C 1030 hPa ENE 3.2 km/h 8 km/h 57% 0 mm
12:19 15.4 °C 5.9 °C 1030 hPa ENE 3.2 km/h 9.7 km/h 53% 0 mm
12:25 15.3 °C 5.5 °C 1030 hPa ENE 3.2 km/h 9.7 km/h 52% 0 mm
12:29 15.4 °C 6.4 °C 1030 hPa ENE 3.2 km/h 4.8 km/h 55% 0 mm
12:34 15.7 °C 5.8 °C 1029.7 hPa West 4.8 km/h 8 km/h 52% 0 mm
12:39 15.8 °C 6.5 °C 1029.7 hPa NNW 4.8 km/h 6.4 km/h 54% 0 mm
12:44 15.6 °C 4.9 °C 1029.7 hPa NNW 1.6 km/h 6.4 km/h 49% 0 mm
12:49 15.8 °C 4.8 °C 1029.7 hPa Calm   6.4 km/h 48% 0 mm
12:54 15.9 °C 4.3 °C 1029.3 hPa East 1.6 km/h 8 km/h 46% 0 mm
13:00 15.7 °C 4.7 °C 1029.3 hPa SSW 3.2 km/h 3.2 km/h 48% 0 mm
13:04 16.1 °C 4.7 °C 1029.3 hPa SW 3.2 km/h 8 km/h 47% 0 mm
13:10 16.1 °C 5.1 °C 1029.3 hPa WNW 3.2 km/h 8 km/h 48% 0 mm
13:15 16.4 °C 5.7 °C 1029 hPa WSW 3.2 km/h 8 km/h 49% 0 mm
13:19 16.4 °C 5.1 °C 1029 hPa South 1.6 km/h 9.7 km/h 47% 0 mm
13:24 16.1 °C 5.6 °C 1029 hPa South 3.2 km/h 9.7 km/h 50% 0 mm
13:30 16.6 °C 6.1 °C 1029 hPa East 3.2 km/h 9.7 km/h 50% 0 mm
13:35 16.8 °C 5.1 °C 1028.7 hPa NNE 3.2 km/h 8 km/h 46% 0 mm
13:40 16.9 °C 4.9 °C 1028.7 hPa ENE 6.4 km/h 6.4 km/h 45% 0 mm
13:44 16.7 °C 6.2 °C 1028.7 hPa Calm   6.4 km/h 50% 0 mm
13:49 17.2 °C 6.1 °C 1028.3 hPa NE 6.4 km/h 8 km/h 48% 0 mm
13:54 17.3 °C 5.8 °C 1028.3 hPa ENE 1.6 km/h 9.7 km/h 47% 0 mm
13:59 17.3 °C 5.9 °C 1028.3 hPa SSW 8 km/h 8 km/h 47% 0 mm
14:04 17.4 °C 6 °C 1028 hPa ENE 3.2 km/h 11.3 km/h 47% 0 mm
14:09 17.2 °C 4.2 °C 1028 hPa ENE 4.8 km/h 8 km/h 42% 0 mm
14:14 17.2 °C 5.1 °C 1028 hPa ENE 3.2 km/h 8 km/h 45% 0 mm
14:19 17.3 °C 3.9 °C 1028 hPa ENE 3.2 km/h 11.3 km/h 41% 0 mm
14:24 17.3 °C 3.6 °C 1028 hPa ENE 3.2 km/h 11.3 km/h 40% 0 mm
14:29 17.3 °C 3.6 °C 1027.7 hPa Calm   4.8 km/h 40% 0 mm
14:35 17.8 °C 4.1 °C 1027.7 hPa NNW 6.4 km/h 8 km/h 40% 0 mm
14:39 17.7 °C 4.6 °C 1027.7 hPa NE 3.2 km/h 8 km/h 42% 0 mm
14:44 17.6 °C 4.2 °C 1027.7 hPa NNE 3.2 km/h 8 km/h 41% 0 mm
14:49 17.4 °C 5 °C 1027.3 hPa ENE 1.6 km/h 6.4 km/h 44% 0 mm
14:54 17.6 °C 4.8 °C 1027.3 hPa ENE 3.2 km/h 11.3 km/h 43% 0 mm
14:59 17.4 °C 4.3 °C 1027.3 hPa ESE 1.6 km/h 6.4 km/h 42% 0 mm
15:04 17.9 °C 5.4 °C 1027.3 hPa North 1.6 km/h 9.7 km/h 44% 0 mm
15:09 17.9 °C 6.2 °C 1027.3 hPa WNW 4.8 km/h 6.4 km/h 46% 0 mm
15:14 18.3 °C 4.8 °C 1027.3 hPa ESE 4.8 km/h 8 km/h 41% 0 mm
15:19 17.9 °C 4.5 °C 1027.3 hPa SSE 4.8 km/h 8 km/h 41% 0 mm
15:24 18.1 °C 5.3 °C 1027.3 hPa SSE 3.2 km/h 4.8 km/h 43% 0 mm
15:29 18.1 °C 5.3 °C 1027 hPa NNW 3.2 km/h 6.4 km/h 43% 0 mm
15:34 18.1 °C 4.9 °C 1027 hPa NE 8 km/h 12.9 km/h 42% 0 mm
15:39 17.9 °C 3.8 °C 1027 hPa Calm   11.3 km/h 39% 0 mm
15:44 18.5 °C 5.3 °C 1027 hPa NE 6.4 km/h 8 km/h 42% 0 mm
15:49 18.4 °C 5.6 °C 1027 hPa NE 3.2 km/h 8 km/h 43% 0 mm
15:54 18.4 °C 4.9 °C 1027 hPa ENE 4.8 km/h 11.3 km/h 41% 0 mm
15:59 18.3 °C 4.8 °C 1026.6 hPa East 3.2 km/h 11.3 km/h 41% 0 mm
16:04 18.3 °C 4.8 °C 1026.6 hPa East 1.6 km/h 6.4 km/h 41% 0 mm
16:10 18.6 °C 5.1 °C 1026.6 hPa ENE 1.6 km/h 4.8 km/h 41% 0 mm
16:15 18.2 °C 4.4 °C 1026.6 hPa NE 3.2 km/h 8 km/h 40% 0 mm
16:19 18.3 °C 4.1 °C 1026.6 hPa NNW 1.6 km/h 3.2 km/h 39% 0 mm
16:24 18.4 °C 4.6 °C 1026.6 hPa NE 3.2 km/h 11.3 km/h 40% 0 mm
16:29 18.4 °C 4.2 °C 1026.6 hPa ENE 6.4 km/h 8 km/h 39% 0 mm
16:34 18.2 °C 4.7 °C 1026.6 hPa ENE 1.6 km/h 6.4 km/h 41% 0 mm
16:39 18.1 °C 3.9 °C 1026.6 hPa Calm   3.2 km/h 39% 0 mm
16:44 18.1 °C 5.3 °C 1026.6 hPa Calm   3.2 km/h 43% 0 mm
16:49 17.8 °C 4.4 °C 1026.3 hPa ENE 1.6 km/h 4.8 km/h 41% 0 mm
16:54 17.8 °C 4.4 °C 1026.3 hPa ENE 1.6 km/h 4.8 km/h 41% 0 mm
16:59 17.8 °C 4.7 °C 1026.3 hPa NE 1.6 km/h 4.8 km/h 42% 0 mm
17:04 17.9 °C 4.1 °C 1026.3 hPa Calm   4.8 km/h 40% 0 mm
17:09 18 °C 4.2 °C 1026.3 hPa Calm   3.2 km/h 40% 0 mm
17:14 17.9 °C 4.8 °C 1026.3 hPa NNE 3.2 km/h 4.8 km/h 42% 0 mm
17:19 17.9 °C 4.1 °C 1026.3 hPa Calm   4.8 km/h 40% 0 mm
17:24 17.7 °C 3.9 °C 1026.3 hPa ENE 1.6 km/h 4.8 km/h 40% 0 mm
17:29 17.6 °C 4.5 °C 1026.3 hPa Calm   3.2 km/h 42% 0 mm
17:34 17.6 °C 4.5 °C 1026.3 hPa Calm     42% 0 mm
17:39 17.5 °C 5.1 °C 1026.3 hPa Calm   8 km/h 44% 0 mm
17:44 17.4 °C 5 °C 1026.3 hPa ENE 3.2 km/h 6.4 km/h 44% 0 mm
17:49 17.2 °C 4.8 °C 1026.3 hPa NE 1.6 km/h 8 km/h 44% 0 mm
17:54 17.2 °C 5.8 °C 1026 hPa ENE 3.2 km/h 9.7 km/h 47% 0 mm
17:59 16.9 °C 5.8 °C 1026 hPa NE 1.6 km/h 9.7 km/h 48% 0 mm
18:04 16.7 °C 5.3 °C 1026 hPa ENE 1.6 km/h 8 km/h 47% 0 mm
18:09 16.4 °C 5.4 °C 1026 hPa ENE 1.6 km/h 4.8 km/h 48% 0 mm
18:14 16.2 °C 5.8 °C 1026 hPa ENE 1.6 km/h 4.8 km/h 50% 0 mm
18:19 16.1 °C 5.6 °C 1026 hPa Calm   3.2 km/h 50% 0 mm
18:24 15.9 °C 6.1 °C 1026.3 hPa Calm   3.2 km/h 52% 0 mm
18:29 15.8 °C 5.7 °C 1026 hPa Calm   4.8 km/h 51% 0 mm
18:34 15.7 °C 5.9 °C 1026.3 hPa ENE 1.6 km/h 4.8 km/h 52% 0 mm
18:39 15.7 °C 5.6 °C 1026 hPa ENE 1.6 km/h 4.8 km/h 51% 0 mm
18:45 15.5 °C 5.7 °C 1026 hPa ENE 3.2 km/h 6.4 km/h 52% 0 mm
18:49 15.3 °C 5.8 °C 1026.3 hPa ENE 1.6 km/h 6.4 km/h 53% 0 mm
18:54 15.2 °C 5.7 °C 1026.3 hPa ENE 1.6 km/h 4.8 km/h 53% 0 mm
18:59 14.8 °C 5.6 °C 1026.3 hPa Calm   1.6 km/h 54% 0 mm
19:04 14.6 °C 5.7 °C 1026.3 hPa Calm     55% 0 mm
19:09 14.4 °C 6 °C 1026 hPa Calm   3.2 km/h 57% 0 mm
19:14 14.1 °C 5.7 °C 1026.3 hPa Calm   1.6 km/h 57% 0 mm
19:19 13.9 °C 5.8 °C 1026.3 hPa Calm     58% 0 mm
19:24 13.7 °C 5.8 °C 1026.3 hPa Calm     59% 0 mm
19:29 13.7 °C 6.3 °C 1026.3 hPa NE 1.6 km/h 11.3 km/h 61% 0 mm
19:34 13.7 °C 7.2 °C 1026.3 hPa NE 3.2 km/h 11.3 km/h 65% 0 mm
19:39 13.5 °C 7.7 °C 1026.3 hPa NE 3.2 km/h 14.5 km/h 68% 0 mm
19:44 13.3 °C 7.9 °C 1026.3 hPa NE 3.2 km/h 11.3 km/h 70% 0 mm
19:49 13.1 °C 8.2 °C 1026.3 hPa NE 3.2 km/h 8 km/h 72% 0 mm
19:54 12.9 °C 8.2 °C 1026.3 hPa NE 1.6 km/h 8 km/h 73% 0 mm
19:59 12.7 °C 8.2 °C 1026.3 hPa NE 1.6 km/h 8 km/h 74% 0 mm
20:09 12.4 °C 8.1 °C 1026.3 hPa NE 3.2 km/h 8 km/h 75% 0 mm
20:14 12.3 °C 8 °C 1026.3 hPa NE 1.6 km/h 8 km/h 75% 0 mm
20:19 12.3 °C 8.2 °C 1026.3 hPa NE 3.2 km/h 11.3 km/h 76% 0 mm
20:24 12.3 °C 8.2 °C 1026.6 hPa NE 4.8 km/h 11.3 km/h 76% 0 mm
20:29 12.3 °C 8.2 °C 1026.6 hPa NE 3.2 km/h 11.3 km/h 76% 0 mm
20:34 12.2 °C 8.1 °C 1026.6 hPa NE 9.7 km/h 11.3 km/h 76% 0 mm
20:39 12.1 °C 8 °C 1026.6 hPa NE 6.4 km/h 11.3 km/h 76% 0 mm
20:44 12 °C 7.9 °C 1026.6 hPa NE 6.4 km/h 11.3 km/h 76% 0 mm
20:49 11.9 °C 7.8 °C 1026.6 hPa ENE 6.4 km/h 9.7 km/h 76% 0 mm
20:54 11.8 °C 7.9 °C 1027 hPa NE 3.2 km/h 9.7 km/h 77% 0 mm
20:59 11.7 °C 7.8 °C 1026.6 hPa NE 4.8 km/h 11.3 km/h 77% 0 mm
21:04 11.7 °C 7.8 °C 1026.6 hPa NE 3.2 km/h 11.3 km/h 77% 0 mm
21:09 11.4 °C 7.6 °C 1026.6 hPa NE 1.6 km/h 4.8 km/h 77% 0 mm
21:14 11.3 °C 7.6 °C 1026.6 hPa NE 1.6 km/h 6.4 km/h 78% 0 mm
21:19 11.3 °C 7.6 °C 1026.6 hPa NE 6.4 km/h 8 km/h 78% 0 mm
21:24 11.3 °C 7.6 °C 1026.6 hPa Calm   6.4 km/h 78% 0 mm
21:29 11.2 °C 7.7 °C 1027 hPa Calm   4.8 km/h 79% 0 mm
21:34 11.1 °C 7.6 °C 1026.6 hPa NE 1.6 km/h 6.4 km/h 79% 0 mm
21:39 11.1 °C 7.6 °C 1026.6 hPa NE 1.6 km/h 6.4 km/h 79% 0 mm
21:44 10.9 °C 7.4 °C 1027 hPa Calm   1.6 km/h 79% 0 mm
21:49 10.8 °C 7.5 °C 1027 hPa Calm   8 km/h 80% 0 mm
21:54 10.7 °C 7.2 °C 1026.6 hPa East 1.6 km/h 8 km/h 79% 0 mm
21:59 10.7 °C 7.4 °C 1026.6 hPa East 1.6 km/h 4.8 km/h 80% 0 mm
22:04 10.7 °C 7.3 °C 1027 hPa ENE 1.6 km/h 8 km/h 80% 0 mm
22:09 10.6 °C 7.2 °C 1027 hPa East 1.6 km/h 8 km/h 80% 0 mm
22:14 10.5 °C 7.2 °C 1027 hPa East 1.6 km/h 9.7 km/h 80% 0 mm
22:19 10.3 °C 7.1 °C 1027 hPa Calm   4.8 km/h 80% 0 mm
22:24 10.3 °C 7.2 °C 1027 hPa East 4.8 km/h 4.8 km/h 81% 0 mm
22:29 10.2 °C 7.1 °C 1027 hPa Calm   4.8 km/h 81% 0 mm
22:34 10.1 °C 6.9 °C 1027 hPa Calm   4.8 km/h 81% 0 mm
22:39 9.9 °C 7 °C 1027 hPa Calm     82% 0 mm
22:44 9.8 °C 6.9 °C 1027 hPa Calm     82% 0 mm
22:49 9.8 °C 6.8 °C 1027 hPa Calm     82% 0 mm
22:54 9.6 °C 6.7 °C 1027 hPa Calm     82% 0 mm
22:59 9.5 °C 6.8 °C 1027 hPa Calm     83% 0 mm
23:04 9.4 °C 6.7 °C 1027 hPa Calm   4.8 km/h 83% 0 mm
23:09 9.4 °C 6.7 °C 1027 hPa Calm   4.8 km/h 83% 0 mm
23:14 9.3 °C 6.6 °C 1027 hPa Calm     83% 0 mm
23:19 9.2 °C 6.6 °C 1027 hPa Calm     84% 0 mm
23:24 9.1 °C 6.6 °C 1027 hPa Calm     84% 0 mm
23:29 9 °C 6.4 °C 1027 hPa Calm     84% 0 mm
23:34 8.9 °C 6.3 °C 1027 hPa Calm     84% 0 mm
23:39 8.8 °C 6.3 °C 1027 hPa Calm     84% 0 mm
23:44 8.8 °C 6.2 °C 1027 hPa Calm     84% 0 mm
23:49 8.8 °C 6.2 °C 1027 hPa Calm   3.2 km/h 84% 0 mm
23:54 8.7 °C 6.2 °C 1027 hPa Calm   4.8 km/h 84% 0 mm
23:59 8.7 °C 6.2 °C 1027 hPa Calm     84% 0 mm
Buffalo, New York, USA
Compliments of Weather Underground - 2.5 mb